createdAt,value
2018-11-02T00:00:43.542Z,7.18
2018-11-02T00:01:43.455Z,7.25
2018-11-02T00:02:43.375Z,7.18
2018-11-02T00:03:44.367Z,7.18
2018-11-02T00:04:43.209Z,7.17
2018-11-02T00:05:43.120Z,7.13
2018-11-02T00:06:43.037Z,7.20
2018-11-02T00:07:42.952Z,7.15
2018-11-02T00:08:42.869Z,7.18
2018-11-02T00:09:42.784Z,7.14
2018-11-02T00:10:42.704Z,7.20
2018-11-02T00:11:42.618Z,7.18
2018-11-02T00:12:42.535Z,7.18
2018-11-02T00:13:42.450Z,7.13
2018-11-02T00:14:42.368Z,7.13
2018-11-02T00:15:42.283Z,7.15
2018-11-02T00:16:42.200Z,7.24
2018-11-02T00:17:42.114Z,7.18
2018-11-02T00:18:42.035Z,7.17
2018-11-02T00:19:41.947Z,7.25
2018-11-02T00:20:41.864Z,7.23
2018-11-02T00:21:41.780Z,7.20
2018-11-02T00:22:41.697Z,7.21
2018-11-02T00:23:41.614Z,7.17
2018-11-02T00:24:41.529Z,7.18
2018-11-02T00:25:41.444Z,7.18
2018-11-02T00:26:41.392Z,7.17
2018-11-02T00:27:41.279Z,7.20
2018-11-02T00:28:41.197Z,7.24
2018-11-02T00:29:41.109Z,7.14
2018-11-02T00:30:41.035Z,7.14
2018-11-02T00:31:41.002Z,7.15
2018-11-02T00:32:40.863Z,7.17
2018-11-02T00:33:40.779Z,7.20
2018-11-02T00:34:40.690Z,7.25
2018-11-02T00:35:40.608Z,7.15
2018-11-02T00:36:40.525Z,7.28
2018-11-02T00:37:40.440Z,7.28
2018-11-02T00:38:40.357Z,7.21
2018-11-02T00:39:40.270Z,7.23
2018-11-02T00:40:40.188Z,7.25
2018-11-02T00:41:40.109Z,7.32
2018-11-02T00:42:40.024Z,7.32
2018-11-02T00:43:39.937Z,7.17
2018-11-02T00:44:39.857Z,7.31
2018-11-02T00:45:39.793Z,7.31
2018-11-02T00:46:39.687Z,7.23
2018-11-02T00:47:39.605Z,7.20
2018-11-02T00:48:39.521Z,7.25
2018-11-02T00:49:39.436Z,7.25
2018-11-02T00:50:39.350Z,7.20
2018-11-02T00:51:39.268Z,7.21
2018-11-02T00:52:39.183Z,7.20
2018-11-02T00:53:39.099Z,7.20
2018-11-02T00:54:39.016Z,7.31
2018-11-02T00:55:38.931Z,7.32
2018-11-02T00:56:38.847Z,7.29
2018-11-02T00:57:38.767Z,7.31
2018-11-02T00:58:38.680Z,7.29
2018-11-02T00:59:38.595Z,7.28
2018-11-02T01:00:38.518Z,7.32
2018-11-02T01:01:38.430Z,7.33
2018-11-02T01:02:38.346Z,7.25
2018-11-02T01:03:38.261Z,7.31
2018-11-02T01:04:38.179Z,7.32
2018-11-02T01:05:38.547Z,7.28
2018-11-02T01:06:38.012Z,7.24
2018-11-02T01:07:37.930Z,7.32
2018-11-02T01:08:37.847Z,7.31
2018-11-02T01:09:37.759Z,7.32
2018-11-02T01:10:37.677Z,7.31
2018-11-02T01:11:37.591Z,7.32
2018-11-02T01:12:37.534Z,7.29
2018-11-02T01:13:37.427Z,7.29
2018-11-02T01:14:37.343Z,7.32
2018-11-02T01:15:37.260Z,7.31
2018-11-02T01:16:37.267Z,7.21
2018-11-02T01:17:37.102Z,7.29
2018-11-02T01:18:37.007Z,7.29
2018-11-02T01:19:36.952Z,7.28
2018-11-02T01:20:36.837Z,7.29
2018-11-02T01:21:36.757Z,7.23
2018-11-02T01:22:36.674Z,7.29
2018-11-02T01:23:36.590Z,7.32
2018-11-02T01:24:36.506Z,7.29
2018-11-02T01:25:36.422Z,7.28
2018-11-02T01:26:36.338Z,7.35
2018-11-02T01:27:36.254Z,7.20
2018-11-02T01:28:36.178Z,7.15
2018-11-02T01:29:36.083Z,7.18
2018-11-02T01:30:36.003Z,7.15
2018-11-02T01:31:35.917Z,7.11
2018-11-02T01:32:35.837Z,7.23
2018-11-02T01:33:35.753Z,7.02
2018-11-02T01:34:35.668Z,6.99
2018-11-02T01:35:35.588Z,6.93
2018-11-02T01:36:35.501Z,6.97
2018-11-02T01:37:35.416Z,6.85
2018-11-02T01:38:35.334Z,6.97
2018-11-02T01:39:35.248Z,6.89
2018-11-02T01:40:35.167Z,6.93
2018-11-02T01:41:35.081Z,7.00
2018-11-02T01:42:35.004Z,6.99
2018-11-02T01:43:34.925Z,6.96
2018-11-02T01:44:34.827Z,7.06
2018-11-02T01:45:34.751Z,7.03
2018-11-02T01:46:34.661Z,7.06
2018-11-02T01:47:34.609Z,7.05
2018-11-02T01:48:34.492Z,7.10
2018-11-02T01:49:34.409Z,7.13
2018-11-02T01:50:34.323Z,7.23
2018-11-02T01:51:34.239Z,7.14
2018-11-02T01:52:34.155Z,7.24
2018-11-02T01:53:34.079Z,7.17
2018-11-02T01:54:33.988Z,7.20
2018-11-02T01:55:33.903Z,7.15
2018-11-02T01:56:33.821Z,7.17
2018-11-02T01:57:33.741Z,7.20
2018-11-02T01:58:33.652Z,7.13
2018-11-02T01:59:33.567Z,7.15
2018-11-02T02:00:33.486Z,7.20
2018-11-02T02:01:33.401Z,7.17
2018-11-02T02:02:33.319Z,7.20
2018-11-02T02:03:33.234Z,7.17
2018-11-02T02:04:33.149Z,7.13
2018-11-02T02:05:33.064Z,7.11
2018-11-02T02:06:32.982Z,7.15
2018-11-02T02:07:32.895Z,7.21
2018-11-02T02:08:32.813Z,7.24
2018-11-02T02:09:32.731Z,7.21
2018-11-02T02:10:32.671Z,7.23
2018-11-02T02:11:32.561Z,7.18
2018-11-02T02:12:32.479Z,7.15
2018-11-02T02:13:32.394Z,7.15
2018-11-02T02:14:32.307Z,7.18
2018-11-02T02:15:32.224Z,7.25
2018-11-02T02:16:32.155Z,7.18
2018-11-02T02:17:32.062Z,7.17
2018-11-02T02:18:32.024Z,7.15
2018-11-02T02:19:31.888Z,7.17
2018-11-02T02:20:31.805Z,7.21
2018-11-02T02:21:31.735Z,7.17
2018-11-02T02:22:31.640Z,7.18
2018-11-02T02:23:31.553Z,7.15
2018-11-02T02:24:31.470Z,7.17
2018-11-02T02:25:31.385Z,7.18
2018-11-02T02:26:31.307Z,7.17
2018-11-02T02:27:31.224Z,7.15
2018-11-02T02:28:31.137Z,7.15
2018-11-02T02:29:31.056Z,7.11
2018-11-02T02:30:30.969Z,7.10
2018-11-02T02:31:30.885Z,7.18
2018-11-02T02:32:30.803Z,7.18
2018-11-02T02:33:30.717Z,7.05
2018-11-02T02:34:30.640Z,7.21
2018-11-02T02:35:30.554Z,7.03
2018-11-02T02:36:30.466Z,7.03
2018-11-02T02:37:30.385Z,7.11
2018-11-02T02:38:30.301Z,7.02
2018-11-02T02:39:30.218Z,7.11
2018-11-02T02:40:30.129Z,7.07
2018-11-02T02:41:30.049Z,7.07
2018-11-02T02:42:29.962Z,7.10
2018-11-02T02:43:29.877Z,7.05
2018-11-02T02:44:29.798Z,7.06
2018-11-02T02:45:29.712Z,7.02
2018-11-02T02:46:29.637Z,7.05
2018-11-02T02:47:29.541Z,7.07
2018-11-02T02:48:29.459Z,6.99
2018-11-02T02:49:29.377Z,7.05
2018-11-02T02:50:29.319Z,7.06
2018-11-02T02:51:29.207Z,7.02
2018-11-02T02:52:29.149Z,6.96
2018-11-02T02:53:29.044Z,6.96
2018-11-02T02:54:28.957Z,7.02
2018-11-02T02:55:28.871Z,7.02
2018-11-02T02:56:28.791Z,7.02
2018-11-02T02:57:28.732Z,7.06
2018-11-02T02:58:28.621Z,7.06
2018-11-02T02:59:28.536Z,7.06
2018-11-02T03:00:28.454Z,6.99
2018-11-02T03:01:28.369Z,6.99
2018-11-02T03:02:28.291Z,6.99
2018-11-02T03:03:28.209Z,7.00
2018-11-02T03:04:28.127Z,6.99
2018-11-02T03:05:28.038Z,6.99
2018-11-02T03:06:27.980Z,6.95
2018-11-02T03:07:27.865Z,6.89
2018-11-02T03:08:27.780Z,6.89
2018-11-02T03:09:27.706Z,6.85
2018-11-02T03:10:27.662Z,6.84
2018-11-02T03:11:27.534Z,6.85
2018-11-02T03:12:27.453Z,6.82
2018-11-02T03:13:27.367Z,6.87
2018-11-02T03:14:27.282Z,6.84
2018-11-02T03:15:27.193Z,6.82
2018-11-02T03:16:27.112Z,6.81
2018-11-02T03:17:27.029Z,6.78
2018-11-02T03:18:26.977Z,6.74
2018-11-02T03:19:26.877Z,6.78
2018-11-02T03:20:26.780Z,6.70
2018-11-02T03:21:26.704Z,6.69
2018-11-02T03:22:26.684Z,6.79
2018-11-02T03:23:26.524Z,6.74
2018-11-02T03:24:26.439Z,6.77
2018-11-02T03:25:26.354Z,6.67
2018-11-02T03:26:26.273Z,6.66
2018-11-02T03:27:26.188Z,6.63
2018-11-02T03:28:26.108Z,6.69
2018-11-02T03:29:26.022Z,6.74
2018-11-02T03:30:25.939Z,6.72
2018-11-02T03:31:25.853Z,6.72
2018-11-02T03:32:25.772Z,6.66
2018-11-02T03:33:25.681Z,6.70
2018-11-02T03:34:25.598Z,6.69
2018-11-02T03:35:25.514Z,6.64
2018-11-02T03:36:25.434Z,6.72
2018-11-02T03:37:25.346Z,6.67
2018-11-02T03:38:25.263Z,6.72
2018-11-02T03:39:25.192Z,6.69
2018-11-02T03:40:25.093Z,6.75
2018-11-02T03:41:25.009Z,6.69
2018-11-02T03:42:24.951Z,6.75
2018-11-02T03:43:24.845Z,6.78
2018-11-02T03:44:24.794Z,6.72
2018-11-02T03:45:24.674Z,6.70
2018-11-02T03:46:24.594Z,6.66
2018-11-02T03:47:24.506Z,6.69
2018-11-02T03:48:24.427Z,6.72
2018-11-02T03:49:24.379Z,6.74
2018-11-02T03:50:24.341Z,6.66
2018-11-02T03:51:24.168Z,6.70
2018-11-02T03:52:24.085Z,6.78
2018-11-02T03:53:24.001Z,6.67
2018-11-02T03:54:23.928Z,6.75
2018-11-02T03:55:24.027Z,6.69
2018-11-02T03:56:23.750Z,6.64
2018-11-02T03:57:23.677Z,6.69
2018-11-02T03:58:23.582Z,6.72
2018-11-02T03:59:23.494Z,6.70
2018-11-02T04:00:23.824Z,6.78
2018-11-02T04:01:23.329Z,6.81
2018-11-02T04:02:23.243Z,6.78
2018-11-02T04:03:23.159Z,6.67
2018-11-02T04:04:23.076Z,6.70
2018-11-02T04:05:22.991Z,6.69
2018-11-02T04:06:22.907Z,6.74
2018-11-02T04:07:22.826Z,6.69
2018-11-02T04:08:22.738Z,6.72
2018-11-02T04:09:22.722Z,6.75
2018-11-02T04:10:22.575Z,6.69
2018-11-02T04:11:22.490Z,6.62
2018-11-02T04:12:22.401Z,6.64
2018-11-02T04:13:22.317Z,6.64
2018-11-02T04:14:22.234Z,6.63
2018-11-02T04:15:22.152Z,6.66
2018-11-02T04:16:22.066Z,6.56
2018-11-02T04:17:22.037Z,6.56
2018-11-02T04:18:21.899Z,6.59
2018-11-02T04:19:21.811Z,6.63
2018-11-02T04:20:21.730Z,6.67
2018-11-02T04:21:21.645Z,6.59
2018-11-02T04:22:21.558Z,6.56
2018-11-02T04:23:21.477Z,6.57
2018-11-02T04:24:21.414Z,6.62
2018-11-02T04:25:21.307Z,6.60
2018-11-02T04:26:21.225Z,6.64
2018-11-02T04:27:21.138Z,6.62
2018-11-02T04:28:21.057Z,6.60
2018-11-02T04:29:20.973Z,6.60
2018-11-02T04:30:20.897Z,6.57
2018-11-02T04:31:20.806Z,6.72
2018-11-02T04:32:20.719Z,6.54
2018-11-02T04:33:20.640Z,6.48
2018-11-02T04:34:20.554Z,6.56
2018-11-02T04:35:20.525Z,6.57
2018-11-02T04:36:20.385Z,6.54
2018-11-02T04:37:20.298Z,6.57
2018-11-02T04:38:20.215Z,6.51
2018-11-02T04:39:20.129Z,6.62
2018-11-02T04:40:20.045Z,6.59
2018-11-02T04:41:19.961Z,6.62
2018-11-02T04:42:19.879Z,6.54
2018-11-02T04:43:19.864Z,6.52
2018-11-02T04:44:19.708Z,6.56
2018-11-02T04:45:19.624Z,6.49
2018-11-02T04:46:19.539Z,6.56
2018-11-02T04:47:19.453Z,6.60
2018-11-02T04:48:19.371Z,6.56
2018-11-02T04:49:19.291Z,6.48
2018-11-02T04:50:19.203Z,6.42
2018-11-02T04:51:19.119Z,6.48
2018-11-02T04:52:19.036Z,6.48
2018-11-02T04:53:18.956Z,6.49
2018-11-02T04:54:18.866Z,6.46
2018-11-02T04:55:18.782Z,6.56
2018-11-02T04:56:18.696Z,6.46
2018-11-02T04:57:18.612Z,6.46
2018-11-02T04:58:18.529Z,6.51
2018-11-02T04:59:18.447Z,6.56
2018-11-02T05:00:18.360Z,6.49
2018-11-02T05:01:18.276Z,6.54
2018-11-02T05:02:18.193Z,6.56
2018-11-02T05:03:18.108Z,6.49
2018-11-02T05:04:18.023Z,6.41
2018-11-02T05:05:17.937Z,6.52
2018-11-02T05:06:17.923Z,6.49
2018-11-02T05:07:17.769Z,6.57
2018-11-02T05:08:17.685Z,6.59
2018-11-02T05:09:17.613Z,6.52
2018-11-02T05:10:17.518Z,6.64
2018-11-02T05:11:17.519Z,6.72
2018-11-02T05:12:17.347Z,6.63
2018-11-02T05:13:17.264Z,6.72
2018-11-02T05:14:17.186Z,6.56
2018-11-02T05:15:17.093Z,6.59
2018-11-02T05:16:17.010Z,6.60
2018-11-02T05:17:16.935Z,6.62
2018-11-02T05:18:16.844Z,6.56
2018-11-02T05:19:16.793Z,6.60
2018-11-02T05:20:16.676Z,6.66
2018-11-02T05:21:16.654Z,6.54
2018-11-02T05:22:16.507Z,6.63
2018-11-02T05:23:16.423Z,6.56
2018-11-02T05:24:16.340Z,6.67
2018-11-02T05:25:16.255Z,6.67
2018-11-02T05:26:16.169Z,6.60
2018-11-02T05:27:16.084Z,6.62
2018-11-02T05:28:16.006Z,6.57
2018-11-02T05:29:15.919Z,6.52
2018-11-02T05:30:15.835Z,6.52
2018-11-02T05:31:15.746Z,6.59
2018-11-02T05:32:15.668Z,6.62
2018-11-02T05:33:15.577Z,6.66
2018-11-02T05:34:15.494Z,6.62
2018-11-02T05:35:15.413Z,6.60
2018-11-02T05:36:15.327Z,6.63
2018-11-02T05:37:15.240Z,6.63
2018-11-02T05:38:15.159Z,6.63
2018-11-02T05:39:15.090Z,6.63
2018-11-02T05:40:14.988Z,6.69
2018-11-02T05:41:14.913Z,6.70
2018-11-02T05:42:14.820Z,6.67
2018-11-02T05:43:14.736Z,6.66
2018-11-02T05:44:14.652Z,6.67
2018-11-02T05:45:14.570Z,6.67
2018-11-02T05:46:14.486Z,6.66
2018-11-02T05:47:14.474Z,6.70
2018-11-02T05:48:14.319Z,6.60
2018-11-02T05:49:14.229Z,6.72
2018-11-02T05:50:14.147Z,6.69
2018-11-02T05:51:14.062Z,6.69
2018-11-02T05:52:13.977Z,6.75
2018-11-02T05:53:13.895Z,6.70
2018-11-02T05:54:13.866Z,6.63
2018-11-02T05:55:13.735Z,6.64
2018-11-02T05:56:13.641Z,6.74
2018-11-02T05:57:13.562Z,6.70
2018-11-02T05:58:13.474Z,6.72
2018-11-02T05:59:13.388Z,6.66
2018-11-02T06:00:13.311Z,6.69
2018-11-02T06:01:13.221Z,6.72
2018-11-02T06:02:13.138Z,6.72
2018-11-02T06:03:13.066Z,6.66
2018-11-02T06:04:12.969Z,6.72
2018-11-02T06:05:12.884Z,6.67
2018-11-02T06:06:12.803Z,6.78
2018-11-02T06:07:12.715Z,6.74
2018-11-02T06:08:12.632Z,6.70
2018-11-02T06:09:12.551Z,6.67
2018-11-02T06:10:12.465Z,6.69
2018-11-02T06:11:12.384Z,6.69
2018-11-02T06:12:12.299Z,6.69
2018-11-02T06:13:12.210Z,6.70
2018-11-02T06:14:12.126Z,6.75
2018-11-02T06:15:12.043Z,6.69
2018-11-02T06:16:11.958Z,6.70
2018-11-02T06:17:11.876Z,6.74
2018-11-02T06:18:11.790Z,6.72
2018-11-02T06:19:11.707Z,6.77
2018-11-02T06:20:11.629Z,6.77
2018-11-02T06:21:11.540Z,6.78
2018-11-02T06:22:11.453Z,6.72
2018-11-02T06:23:11.377Z,6.75
2018-11-02T06:24:11.331Z,6.81
2018-11-02T06:25:11.202Z,6.84
2018-11-02T06:26:11.117Z,6.88
2018-11-02T06:27:11.036Z,6.87
2018-11-02T06:28:10.969Z,6.84
2018-11-02T06:29:10.867Z,6.84
2018-11-02T06:30:10.783Z,6.79
2018-11-02T06:31:10.697Z,6.84
2018-11-02T06:32:10.620Z,6.85
2018-11-02T06:33:10.531Z,6.87
2018-11-02T06:34:10.449Z,6.85
2018-11-02T06:35:10.361Z,6.89
2018-11-02T06:36:10.280Z,6.89
2018-11-02T06:37:10.237Z,6.89
2018-11-02T06:38:10.111Z,6.82
2018-11-02T06:39:10.026Z,6.88
2018-11-02T06:40:09.965Z,6.82
2018-11-02T06:41:09.858Z,6.89
2018-11-02T06:42:09.777Z,6.99
2018-11-02T06:43:09.697Z,7.02
2018-11-02T06:44:09.609Z,6.99
2018-11-02T06:45:09.554Z,7.03
2018-11-02T06:46:09.441Z,7.03
2018-11-02T06:47:09.356Z,7.05
2018-11-02T06:48:09.271Z,6.99
2018-11-02T06:49:09.188Z,7.03
2018-11-02T06:50:09.104Z,7.07
2018-11-02T06:51:09.021Z,7.17
2018-11-02T06:52:08.937Z,7.11
2018-11-02T06:53:08.855Z,7.14
2018-11-02T06:54:08.771Z,7.15
2018-11-02T06:55:08.832Z,7.15
2018-11-02T06:56:08.602Z,7.17
2018-11-02T06:57:08.523Z,7.21
2018-11-02T06:58:08.438Z,7.21
2018-11-02T06:59:08.444Z,7.17
2018-11-02T07:00:08.372Z,7.18
2018-11-02T07:01:08.182Z,7.14
2018-11-02T07:02:08.103Z,7.11
2018-11-02T07:03:08.024Z,7.18
2018-11-02T07:04:07.934Z,7.15
2018-11-02T07:05:07.849Z,7.20
2018-11-02T07:06:07.767Z,7.24
2018-11-02T07:07:07.720Z,7.17
2018-11-02T07:08:07.725Z,7.14
2018-11-02T07:09:07.517Z,7.15
2018-11-02T07:10:07.429Z,7.21
2018-11-02T07:11:07.365Z,7.23
2018-11-02T07:12:07.266Z,7.23
2018-11-02T07:13:07.179Z,7.23
2018-11-02T07:14:07.096Z,7.25
2018-11-02T07:15:07.012Z,7.24
2018-11-02T07:16:06.930Z,7.28
2018-11-02T07:17:06.845Z,7.31
2018-11-02T07:18:06.763Z,7.33
2018-11-02T07:19:06.684Z,7.32
2018-11-02T07:20:06.595Z,7.31
2018-11-02T07:21:06.518Z,7.25
2018-11-02T07:22:06.427Z,7.29
2018-11-02T07:23:06.347Z,7.32
2018-11-02T07:24:06.261Z,7.32
2018-11-02T07:25:06.359Z,7.28
2018-11-02T07:26:06.095Z,7.29
2018-11-02T07:27:06.012Z,7.31
2018-11-02T07:28:05.930Z,7.33
2018-11-02T07:29:05.845Z,7.31
2018-11-02T07:30:05.761Z,7.32
2018-11-02T07:31:05.679Z,7.28
2018-11-02T07:32:05.591Z,7.32
2018-11-02T07:33:05.513Z,7.33
2018-11-02T07:34:05.448Z,7.31
2018-11-02T07:35:05.343Z,7.24
2018-11-02T07:36:05.259Z,7.17
2018-11-02T07:37:05.176Z,7.20
2018-11-02T07:38:05.096Z,7.18
2018-11-02T07:39:05.046Z,7.18
2018-11-02T07:40:04.928Z,7.24
2018-11-02T07:41:04.842Z,7.21
2018-11-02T07:42:04.758Z,7.25
2018-11-02T07:43:04.680Z,7.31
2018-11-02T07:44:04.593Z,7.33
2018-11-02T07:45:04.507Z,7.32
2018-11-02T07:46:04.424Z,7.29
2018-11-02T07:47:04.367Z,7.29
2018-11-02T07:48:04.257Z,7.29
2018-11-02T07:49:04.174Z,7.28
2018-11-02T07:50:04.091Z,7.31
2018-11-02T07:51:04.009Z,7.23
2018-11-02T07:52:03.923Z,7.21
2018-11-02T07:53:03.857Z,7.24
2018-11-02T07:54:03.767Z,7.20
2018-11-02T07:55:03.680Z,7.23
2018-11-02T07:56:03.590Z,7.20
2018-11-02T07:57:03.508Z,7.24
2018-11-02T07:58:03.424Z,7.17
2018-11-02T07:59:03.355Z,7.18
2018-11-02T08:00:03.255Z,7.33
2018-11-02T08:01:03.175Z,7.33
2018-11-02T08:02:03.164Z,7.21
2018-11-02T08:03:03.005Z,7.20
2018-11-02T08:04:02.921Z,7.29
2018-11-02T08:05:02.840Z,7.29
2018-11-02T08:06:02.755Z,7.31
2018-11-02T08:07:02.670Z,7.24
2018-11-02T08:08:02.591Z,7.32
2018-11-02T08:09:02.509Z,7.38
2018-11-02T08:10:02.425Z,7.39
2018-11-02T08:11:02.335Z,7.40
2018-11-02T08:12:02.268Z,7.36
2018-11-02T08:13:02.170Z,7.31
2018-11-02T08:14:02.090Z,7.38
2018-11-02T08:15:02.003Z,7.42
2018-11-02T08:16:01.923Z,7.43
2018-11-02T08:17:01.842Z,7.42
2018-11-02T08:18:01.752Z,7.40
2018-11-02T08:19:01.717Z,7.45
2018-11-02T08:20:01.585Z,7.48
2018-11-02T08:21:01.503Z,7.58
2018-11-02T08:22:01.418Z,7.53
2018-11-02T08:23:01.333Z,7.53
2018-11-02T08:24:01.270Z,7.63
2018-11-02T08:25:01.169Z,7.60
2018-11-02T08:26:01.083Z,7.57
2018-11-02T08:27:01.000Z,7.73
2018-11-02T08:28:00.924Z,7.70
2018-11-02T08:29:00.838Z,7.75
2018-11-02T08:30:00.752Z,7.69
2018-11-02T08:31:00.665Z,7.85
2018-11-02T08:32:00.605Z,7.83
2018-11-02T08:33:00.503Z,7.90
2018-11-02T08:34:00.421Z,7.98
2018-11-02T08:35:00.340Z,8.00
2018-11-02T08:36:00.261Z,7.97
2018-11-02T08:37:00.172Z,8.06
2018-11-02T08:38:00.094Z,8.06
2018-11-02T08:39:00.005Z,8.03
2018-11-02T08:39:59.926Z,8.09
2018-11-02T08:40:59.838Z,8.08
2018-11-02T08:41:59.755Z,8.10
2018-11-02T08:42:59.676Z,8.09
2018-11-02T08:43:59.593Z,8.09
2018-11-02T08:44:59.512Z,8.13
2018-11-02T08:45:59.436Z,8.16
2018-11-02T08:46:59.343Z,8.12
2018-11-02T08:47:59.262Z,8.10
2018-11-02T08:48:59.228Z,8.08
2018-11-02T08:49:59.094Z,8.24
2018-11-02T08:50:59.011Z,8.18
2018-11-02T08:51:58.932Z,8.19
2018-11-02T08:52:58.849Z,8.27
2018-11-02T08:53:58.769Z,8.24
2018-11-02T08:54:58.682Z,8.19
2018-11-02T08:55:58.600Z,8.23
2018-11-02T08:56:58.515Z,8.24
2018-11-02T08:57:58.562Z,8.33
2018-11-02T08:58:58.425Z,8.28
2018-11-02T08:59:58.302Z,8.31
2018-11-02T09:00:58.188Z,8.33
2018-11-02T09:01:58.106Z,8.31
2018-11-02T09:02:58.021Z,8.27
2018-11-02T09:03:57.940Z,8.33
2018-11-02T09:04:57.918Z,8.34
2018-11-02T09:05:57.778Z,8.38
2018-11-02T09:06:57.692Z,8.30
2018-11-02T09:07:57.617Z,8.30
2018-11-02T09:08:57.530Z,8.36
2018-11-02T09:09:57.447Z,8.38
2018-11-02T09:10:57.376Z,8.38
2018-11-02T09:11:57.303Z,8.41
2018-11-02T09:12:57.198Z,8.53
2018-11-02T09:13:57.122Z,8.53
2018-11-02T09:14:57.035Z,8.48
2018-11-02T09:15:56.956Z,8.48
2018-11-02T09:16:56.872Z,8.53
2018-11-02T09:17:56.791Z,8.55
2018-11-02T09:18:56.706Z,8.61
2018-11-02T09:19:56.626Z,8.58
2018-11-02T09:20:56.543Z,8.61
2018-11-02T09:21:56.467Z,8.70
2018-11-02T09:22:56.379Z,8.66
2018-11-02T09:23:56.315Z,8.69
2018-11-02T09:24:56.219Z,8.76
2018-11-02T09:25:56.201Z,8.81
2018-11-02T09:26:56.056Z,8.81
2018-11-02T09:27:55.971Z,8.85
2018-11-02T09:28:55.896Z,8.89
2018-11-02T09:29:55.808Z,8.89
2018-11-02T09:30:55.724Z,8.94
2018-11-02T09:31:55.645Z,8.94
2018-11-02T09:32:55.566Z,8.95
2018-11-02T09:33:55.481Z,9.00
2018-11-02T09:34:55.403Z,9.06
2018-11-02T09:35:55.321Z,9.08
2018-11-02T09:36:55.239Z,9.00
2018-11-02T09:37:55.156Z,9.11
2018-11-02T09:38:55.076Z,9.13
2018-11-02T09:39:54.992Z,9.11
2018-11-02T09:40:54.914Z,9.13
2018-11-02T09:41:54.828Z,9.25
2018-11-02T09:42:54.766Z,9.25
2018-11-02T09:43:54.665Z,9.28
2018-11-02T09:44:54.585Z,9.29
2018-11-02T09:45:54.507Z,9.29
2018-11-02T09:46:54.426Z,9.40
2018-11-02T09:47:54.350Z,9.34
2018-11-02T09:48:54.278Z,9.34
2018-11-02T09:49:54.182Z,9.29
2018-11-02T09:50:54.107Z,9.34
2018-11-02T09:51:54.044Z,9.34
2018-11-02T09:52:53.939Z,9.48
2018-11-02T09:53:53.854Z,9.46
2018-11-02T09:54:53.775Z,9.44
2018-11-02T09:55:53.694Z,9.48
2018-11-02T09:56:53.611Z,9.47
2018-11-02T09:57:53.732Z,9.51
2018-11-02T09:58:53.470Z,9.50
2018-11-02T09:59:53.370Z,9.51
2018-11-02T10:00:53.300Z,9.56
2018-11-02T10:01:53.271Z,9.47
2018-11-02T10:02:53.128Z,9.54
2018-11-02T10:03:53.046Z,9.54
2018-11-02T10:04:52.966Z,9.64
2018-11-02T10:05:52.887Z,9.61
2018-11-02T10:06:52.804Z,9.65
2018-11-02T10:07:52.723Z,9.64
2018-11-02T10:08:52.642Z,9.59
2018-11-02T10:09:52.562Z,9.72
2018-11-02T10:10:52.481Z,9.62
2018-11-02T10:11:52.400Z,9.64
2018-11-02T10:12:52.322Z,9.62
2018-11-02T10:13:52.239Z,9.65
2018-11-02T10:14:52.157Z,9.79
2018-11-02T10:15:52.076Z,9.76
2018-11-02T10:16:51.995Z,9.72
2018-11-02T10:17:51.918Z,9.77
2018-11-02T10:18:51.840Z,9.66
2018-11-02T10:19:51.792Z,9.76
2018-11-02T10:20:51.680Z,9.87
2018-11-02T10:21:51.595Z,9.80
2018-11-02T10:22:51.512Z,9.83
2018-11-02T10:23:51.552Z,9.89
2018-11-02T10:24:51.352Z,9.94
2018-11-02T10:25:51.271Z,9.89
2018-11-02T10:26:51.196Z,9.97
2018-11-02T10:27:51.110Z,9.97
2018-11-02T10:28:51.029Z,9.98
2018-11-02T10:29:50.955Z,10.07
2018-11-02T10:30:50.868Z,10.02
2018-11-02T10:31:50.788Z,10.04
2018-11-02T10:32:50.709Z,10.02
2018-11-02T10:33:50.629Z,10.04
2018-11-02T10:34:50.547Z,10.09
2018-11-02T10:35:50.553Z,10.12
2018-11-02T10:36:50.388Z,10.09
2018-11-02T10:37:50.306Z,10.17
2018-11-02T10:38:50.224Z,10.19
2018-11-02T10:39:50.150Z,10.19
2018-11-02T10:40:50.066Z,10.17
2018-11-02T10:41:49.988Z,10.25
2018-11-02T10:42:49.907Z,10.22
2018-11-02T10:43:49.826Z,10.17
2018-11-02T10:44:49.840Z,10.16
2018-11-02T10:45:49.667Z,10.25
2018-11-02T10:46:49.599Z,10.19
2018-11-02T10:47:49.504Z,10.34
2018-11-02T10:48:49.425Z,10.30
2018-11-02T10:49:49.344Z,10.38
2018-11-02T10:50:49.266Z,10.33
2018-11-02T10:51:49.190Z,10.34
2018-11-02T10:52:49.105Z,10.42
2018-11-02T10:53:49.028Z,10.40
2018-11-02T10:54:48.946Z,10.42
2018-11-02T10:55:48.864Z,10.44
2018-11-02T10:56:48.784Z,10.49
2018-11-02T10:57:48.704Z,10.44
2018-11-02T10:58:48.637Z,10.46
2018-11-02T10:59:48.548Z,10.49
2018-11-02T11:00:48.580Z,10.53
2018-11-02T11:01:48.398Z,10.53
2018-11-02T11:02:48.303Z,10.63
2018-11-02T11:03:48.226Z,10.69
2018-11-02T11:04:48.143Z,10.64
2018-11-02T11:05:48.086Z,10.75
2018-11-02T11:06:47.983Z,10.74
2018-11-02T11:07:47.907Z,10.86
2018-11-02T11:08:47.825Z,10.89
2018-11-02T11:09:47.746Z,11.00
2018-11-02T11:10:47.667Z,10.92
2018-11-02T11:11:47.833Z,11.00
2018-11-02T11:12:47.799Z,10.97
2018-11-02T11:13:47.731Z,11.11
2018-11-02T11:14:47.350Z,11.11
2018-11-02T11:15:47.278Z,11.18
2018-11-02T11:16:47.194Z,11.30
2018-11-02T11:17:47.111Z,11.23
2018-11-02T11:18:47.041Z,11.32
2018-11-02T11:19:46.952Z,11.45
2018-11-02T11:20:46.875Z,11.47
2018-11-02T11:21:46.795Z,11.55
2018-11-02T11:22:46.715Z,11.62
2018-11-02T11:23:46.639Z,11.72
2018-11-02T11:24:46.558Z,11.90
2018-11-02T11:25:46.482Z,11.78
2018-11-02T11:26:46.404Z,11.84
2018-11-02T11:27:46.327Z,11.86
2018-11-02T11:28:46.246Z,11.97
2018-11-02T11:29:46.169Z,12.03
2018-11-02T11:30:46.093Z,12.13
2018-11-02T11:31:46.012Z,12.21
2018-11-02T11:32:45.935Z,12.22
2018-11-02T11:33:45.859Z,12.27
2018-11-02T11:34:45.781Z,12.24
2018-11-02T11:35:45.703Z,12.31
2018-11-02T11:36:45.659Z,12.37
2018-11-02T11:37:45.818Z,12.37
2018-11-02T11:38:45.471Z,12.42
2018-11-02T11:39:45.475Z,12.40
2018-11-02T11:40:45.320Z,12.43
2018-11-02T11:41:45.241Z,12.43
2018-11-02T11:42:45.167Z,12.46
2018-11-02T11:43:45.090Z,12.40
2018-11-02T11:44:45.012Z,12.47
2018-11-02T11:45:44.947Z,12.42
2018-11-02T11:46:44.856Z,12.37
2018-11-02T11:47:44.781Z,12.40
2018-11-02T11:48:44.836Z,12.42
2018-11-02T11:49:44.637Z,12.42
2018-11-02T11:50:44.550Z,12.36
2018-11-02T11:51:44.472Z,12.40
2018-11-02T11:52:44.395Z,12.35
2018-11-02T11:53:44.319Z,12.32
2018-11-02T11:54:44.252Z,12.39
2018-11-02T11:55:44.166Z,12.31
2018-11-02T11:56:44.087Z,12.27
2018-11-02T11:57:44.008Z,12.25
2018-11-02T11:58:43.930Z,12.28
2018-11-02T11:59:43.854Z,12.22
2018-11-02T12:00:43.778Z,12.24
2018-11-02T12:01:43.698Z,12.28
2018-11-02T12:02:43.620Z,12.32
2018-11-02T12:03:43.545Z,12.37
2018-11-02T12:04:43.526Z,12.36
2018-11-02T12:05:43.431Z,12.39
2018-11-02T12:06:43.312Z,12.31
2018-11-02T12:07:43.236Z,12.37
2018-11-02T12:08:43.158Z,12.37
2018-11-02T12:09:43.092Z,12.37
2018-11-02T12:10:43.021Z,12.35
2018-11-02T12:11:42.925Z,12.36
2018-11-02T12:12:42.854Z,12.36
2018-11-02T12:13:42.769Z,12.39
2018-11-02T12:14:42.689Z,12.36
2018-11-02T12:15:42.676Z,12.39
2018-11-02T12:16:42.537Z,12.39
2018-11-02T12:17:42.457Z,12.37
2018-11-02T12:18:42.377Z,12.39
2018-11-02T12:19:42.301Z,12.35
2018-11-02T12:20:42.227Z,12.31
2018-11-02T12:21:42.197Z,12.37
2018-11-02T12:22:42.066Z,12.25
2018-11-02T12:23:41.991Z,12.24
2018-11-02T12:24:41.913Z,12.22
2018-11-02T12:25:41.858Z,12.25
2018-11-02T12:26:41.752Z,12.25
2018-11-02T12:27:41.676Z,12.22
2018-11-02T12:28:41.693Z,12.28
2018-11-02T12:29:41.521Z,12.24
2018-11-02T12:30:41.476Z,12.27
2018-11-02T12:31:41.363Z,12.31
2018-11-02T12:32:41.287Z,12.28
2018-11-02T12:33:41.225Z,12.31
2018-11-02T12:34:41.129Z,12.36
2018-11-02T12:35:41.052Z,12.39
2018-11-02T12:36:40.976Z,12.36
2018-11-02T12:37:40.896Z,12.37
2018-11-02T12:38:40.818Z,12.39
2018-11-02T12:39:40.776Z,12.43
2018-11-02T12:40:40.672Z,12.40
2018-11-02T12:41:40.582Z,12.43
2018-11-02T12:42:40.510Z,12.29
2018-11-02T12:43:40.523Z,12.42
2018-11-02T12:44:40.349Z,12.40
2018-11-02T12:45:40.269Z,12.43
2018-11-02T12:46:40.190Z,12.46
2018-11-02T12:47:40.155Z,12.50
2018-11-02T12:48:40.237Z,12.55
2018-11-02T12:49:40.360Z,12.60
2018-11-02T12:50:40.036Z,12.53
2018-11-02T12:51:39.804Z,12.65
2018-11-02T12:52:39.723Z,12.70
2018-11-02T12:53:39.646Z,12.68
2018-11-02T12:54:39.568Z,12.70
2018-11-02T12:55:39.492Z,12.62
2018-11-02T12:56:39.411Z,12.64
2018-11-02T12:57:39.427Z,12.70
2018-11-02T12:58:39.253Z,12.78
2018-11-02T12:59:39.204Z,12.87
2018-11-02T13:00:39.105Z,12.85
2018-11-02T13:01:39.022Z,12.94
2018-11-02T13:02:38.944Z,12.90
2018-11-02T13:03:38.863Z,13.04
2018-11-02T13:04:38.784Z,12.95
2018-11-02T13:05:38.707Z,12.91
2018-11-02T13:06:38.632Z,13.00
2018-11-02T13:07:38.552Z,12.98
2018-11-02T13:08:38.477Z,12.95
2018-11-02T13:09:38.589Z,12.98
2018-11-02T13:10:38.326Z,13.04
2018-11-02T13:11:38.242Z,13.12
2018-11-02T13:12:38.166Z,13.11